createdAt,value
2022-12-17T00:00:24.463Z,0.00
2022-12-17T00:01:20.507Z,0.00
2022-12-17T00:02:19.548Z,0.00
2022-12-17T00:03:19.720Z,0.00
2022-12-17T00:04:19.500Z,0.00
2022-12-17T00:05:19.448Z,0.00
2022-12-17T00:06:19.443Z,0.00
2022-12-17T00:07:19.478Z,0.00
2022-12-17T00:08:19.419Z,0.00
2022-12-17T00:09:19.430Z,0.00
2022-12-17T00:10:20.238Z,0.00
2022-12-17T00:11:19.380Z,0.00
2022-12-17T00:12:20.231Z,0.00
2022-12-17T00:13:19.381Z,0.00
2022-12-17T00:14:19.379Z,0.00
2022-12-17T00:15:19.339Z,0.00
2022-12-17T00:16:19.429Z,0.00
2022-12-17T00:17:21.181Z,0.00
2022-12-17T00:18:19.363Z,0.00
2022-12-17T00:19:19.291Z,0.00
2022-12-17T00:20:19.271Z,0.00
2022-12-17T00:21:19.281Z,0.00
2022-12-17T00:22:19.474Z,0.00
2022-12-17T00:23:19.231Z,0.00
2022-12-17T00:24:19.327Z,0.00
2022-12-17T00:25:19.223Z,0.00
2022-12-17T00:26:19.205Z,0.00
2022-12-17T00:27:19.195Z,0.00
2022-12-17T00:28:19.192Z,0.00
2022-12-17T00:29:19.220Z,0.00
2022-12-17T00:30:19.164Z,0.00
2022-12-17T00:31:19.220Z,0.00
2022-12-17T00:32:19.149Z,0.00
2022-12-17T00:33:19.152Z,0.00
2022-12-17T00:34:19.120Z,0.00
2022-12-17T00:35:19.120Z,0.00
2022-12-17T00:36:19.111Z,0.00
2022-12-17T00:37:19.129Z,0.00
2022-12-17T00:38:19.994Z,0.00
2022-12-17T00:39:19.093Z,0.00
2022-12-17T00:40:19.105Z,0.00
2022-12-17T00:41:19.050Z,0.00
2022-12-17T00:42:19.052Z,0.00
2022-12-17T00:43:19.079Z,0.00
2022-12-17T00:44:19.071Z,0.00
2022-12-17T00:45:19.089Z,0.00
2022-12-17T00:46:19.134Z,0.00
2022-12-17T00:47:19.155Z,0.00
2022-12-17T00:48:18.982Z,0.00
2022-12-17T00:49:18.954Z,0.00
2022-12-17T00:50:18.952Z,0.00
2022-12-17T00:51:18.930Z,0.00
2022-12-17T00:52:18.950Z,0.00
2022-12-17T00:53:18.919Z,0.00
2022-12-17T00:54:18.910Z,0.00
2022-12-17T00:55:18.892Z,0.00
2022-12-17T00:56:18.879Z,0.00
2022-12-17T00:57:18.880Z,0.00
2022-12-17T00:58:18.880Z,0.00
2022-12-17T00:59:18.872Z,0.00
2022-12-17T01:00:18.831Z,0.00
2022-12-17T01:01:18.935Z,0.00
2022-12-17T01:02:18.950Z,0.00
2022-12-17T01:03:18.852Z,0.00
2022-12-17T01:04:18.820Z,0.00
2022-12-17T01:05:18.795Z,0.00
2022-12-17T01:06:18.760Z,0.00
2022-12-17T01:07:18.760Z,0.00
2022-12-17T01:08:18.763Z,0.00
2022-12-17T01:09:18.789Z,0.00
2022-12-17T01:10:18.750Z,0.00
2022-12-17T01:11:18.719Z,0.00
2022-12-17T01:12:18.742Z,0.00
2022-12-17T01:13:18.701Z,0.00
2022-12-17T01:14:18.688Z,0.00
2022-12-17T01:15:18.728Z,0.00
2022-12-17T01:16:18.774Z,0.00
2022-12-17T01:17:18.704Z,0.00
2022-12-17T01:18:18.642Z,0.00
2022-12-17T01:19:18.632Z,0.00
2022-12-17T01:20:18.641Z,0.00
2022-12-17T01:21:18.652Z,0.00
2022-12-17T01:22:18.661Z,0.00
2022-12-17T01:23:18.590Z,0.00
2022-12-17T01:24:18.580Z,0.00
2022-12-17T01:25:18.573Z,0.00
2022-12-17T01:26:18.641Z,0.00
2022-12-17T01:27:18.642Z,0.00
2022-12-17T01:28:18.587Z,0.00
2022-12-17T01:29:18.573Z,0.00
2022-12-17T01:30:18.701Z,0.00
2022-12-17T01:31:18.570Z,0.00
2022-12-17T01:32:18.508Z,0.00
2022-12-17T01:33:18.471Z,0.00
2022-12-17T01:34:18.490Z,0.00
2022-12-17T01:35:18.454Z,0.00
2022-12-17T01:36:18.454Z,0.00
2022-12-17T01:37:18.440Z,0.00
2022-12-17T01:38:18.457Z,0.00
2022-12-17T01:39:18.415Z,0.00
2022-12-17T01:40:18.427Z,0.00
2022-12-17T01:41:18.440Z,0.00
2022-12-17T01:42:18.406Z,0.00
2022-12-17T01:43:18.390Z,0.00
2022-12-17T01:44:18.352Z,0.00
2022-12-17T01:45:18.349Z,0.00
2022-12-17T01:46:18.427Z,0.00
2022-12-17T01:47:18.322Z,0.00
2022-12-17T01:48:18.310Z,0.00
2022-12-17T01:49:18.341Z,0.00
2022-12-17T01:50:18.321Z,0.00
2022-12-17T01:51:18.280Z,0.00
2022-12-17T01:52:18.268Z,0.00
2022-12-17T01:53:18.251Z,0.00
2022-12-17T01:54:18.241Z,0.00
2022-12-17T01:55:18.281Z,0.00
2022-12-17T01:56:18.240Z,0.00
2022-12-17T01:57:18.226Z,0.00
2022-12-17T01:58:18.221Z,0.00
2022-12-17T01:59:18.202Z,0.00
2022-12-17T02:00:18.191Z,0.00
2022-12-17T02:01:18.313Z,0.00
2022-12-17T02:02:18.366Z,0.00
2022-12-17T02:03:18.206Z,0.00
2022-12-17T02:04:18.135Z,0.00
2022-12-17T02:05:18.121Z,0.00
2022-12-17T02:06:18.197Z,0.00
2022-12-17T02:07:18.137Z,0.00
2022-12-17T02:08:18.092Z,0.00
2022-12-17T02:09:18.099Z,0.00
2022-12-17T02:10:18.091Z,0.00
2022-12-17T02:11:18.051Z,0.00
2022-12-17T02:12:18.081Z,0.00
2022-12-17T02:13:18.093Z,0.00
2022-12-17T02:14:18.033Z,0.00
2022-12-17T02:15:18.021Z,0.00
2022-12-17T02:16:18.063Z,0.00
2022-12-17T02:17:17.992Z,0.00
2022-12-17T02:18:18.081Z,0.00
2022-12-17T02:19:17.981Z,0.00
2022-12-17T02:20:17.963Z,0.00
2022-12-17T02:21:17.963Z,0.00
2022-12-17T02:22:17.942Z,0.00
2022-12-17T02:23:17.933Z,0.00
2022-12-17T02:24:17.931Z,0.00
2022-12-17T02:25:17.926Z,0.00
2022-12-17T02:26:17.916Z,0.00
2022-12-17T02:27:17.883Z,0.00
2022-12-17T02:28:17.910Z,0.00
2022-12-17T02:29:17.914Z,0.00
2022-12-17T02:30:17.900Z,0.00
2022-12-17T02:31:17.877Z,0.00
2022-12-17T02:32:17.831Z,0.00
2022-12-17T02:33:17.867Z,0.00
2022-12-17T02:34:17.811Z,0.00
2022-12-17T02:35:17.835Z,0.00
2022-12-17T02:36:17.809Z,0.00
2022-12-17T02:37:17.803Z,0.00
2022-12-17T02:38:17.791Z,0.00
2022-12-17T02:39:17.764Z,0.00
2022-12-17T02:40:17.791Z,0.00
2022-12-17T02:41:17.731Z,0.00
2022-12-17T02:42:17.760Z,0.00
2022-12-17T02:43:17.723Z,0.00
2022-12-17T02:44:17.730Z,0.00
2022-12-17T02:45:17.702Z,0.00
2022-12-17T02:46:17.761Z,0.00
2022-12-17T02:47:17.714Z,0.00
2022-12-17T02:48:17.682Z,0.00
2022-12-17T02:49:17.641Z,0.00
2022-12-17T02:50:17.654Z,0.00
2022-12-17T02:51:17.658Z,0.00
2022-12-17T02:52:18.633Z,0.00
2022-12-17T02:53:17.642Z,0.00
2022-12-17T02:54:17.601Z,0.00
2022-12-17T02:55:17.593Z,0.00
2022-12-17T02:56:17.573Z,0.00
2022-12-17T02:57:17.582Z,0.00
2022-12-17T02:58:17.585Z,0.00
2022-12-17T02:59:17.588Z,0.00
2022-12-17T03:00:17.541Z,0.00
2022-12-17T03:01:17.698Z,0.00
2022-12-17T03:02:17.567Z,0.00
2022-12-17T03:03:17.560Z,0.00
2022-12-17T03:04:17.493Z,0.00
2022-12-17T03:05:43.415Z,0.00
2022-12-17T03:06:18.479Z,0.00
2022-12-17T03:07:17.807Z,0.00
2022-12-17T03:08:17.478Z,0.00
2022-12-17T03:09:17.473Z,0.00
2022-12-17T03:10:17.437Z,0.00
2022-12-17T03:11:17.407Z,0.00
2022-12-17T03:12:17.409Z,0.00
2022-12-17T03:13:17.383Z,0.00
2022-12-17T03:14:17.372Z,0.00
2022-12-17T03:15:17.393Z,0.00
2022-12-17T03:16:17.780Z,0.00
2022-12-17T03:17:17.367Z,0.00
2022-12-17T03:18:17.332Z,0.00
2022-12-17T03:19:17.335Z,0.00
2022-12-17T03:20:17.369Z,0.00
2022-12-17T03:21:17.302Z,0.00
2022-12-17T03:22:17.283Z,0.00
2022-12-17T03:23:17.358Z,0.00
2022-12-17T03:24:17.265Z,0.00
2022-12-17T03:25:17.252Z,0.00
2022-12-17T03:26:17.265Z,0.00
2022-12-17T03:27:17.324Z,0.00
2022-12-17T03:28:17.212Z,0.00
2022-12-17T03:29:17.214Z,0.00
2022-12-17T03:30:17.204Z,0.00
2022-12-17T03:31:17.307Z,0.00
2022-12-17T03:32:17.172Z,0.00
2022-12-17T03:33:17.193Z,0.00
2022-12-17T03:34:17.152Z,0.00
2022-12-17T03:35:17.212Z,0.00
2022-12-17T03:36:17.220Z,0.00
2022-12-17T03:37:17.233Z,0.00
2022-12-17T03:38:17.326Z,0.00
2022-12-17T03:39:17.142Z,0.00
2022-12-17T03:40:17.093Z,0.00
2022-12-17T03:41:17.083Z,0.00
2022-12-17T03:42:17.102Z,0.00
2022-12-17T03:43:17.082Z,0.00
2022-12-17T03:44:17.059Z,0.00
2022-12-17T03:45:17.073Z,0.00
2022-12-17T03:46:17.101Z,0.00
2022-12-17T03:47:17.022Z,0.00
2022-12-17T03:48:17.033Z,0.00
2022-12-17T03:49:16.992Z,0.00
2022-12-17T03:50:16.988Z,0.00
2022-12-17T03:51:16.974Z,0.00
2022-12-17T03:52:16.979Z,0.00
2022-12-17T03:53:16.952Z,0.00
2022-12-17T03:54:16.975Z,0.00
2022-12-17T03:55:16.960Z,0.00
2022-12-17T03:56:16.942Z,0.00
2022-12-17T03:57:16.945Z,0.00
2022-12-17T03:58:16.892Z,0.00
2022-12-17T03:59:16.908Z,0.00
2022-12-17T04:00:16.933Z,0.00
2022-12-17T04:01:16.957Z,0.00
2022-12-17T04:02:16.992Z,0.00
2022-12-17T04:03:16.904Z,0.00
2022-12-17T04:04:16.826Z,0.00
2022-12-17T04:05:20.121Z,0.00
2022-12-17T04:06:16.842Z,0.00
2022-12-17T04:07:16.833Z,0.00
2022-12-17T04:08:17.047Z,0.00
2022-12-17T04:09:16.789Z,0.00
2022-12-17T04:10:16.765Z,0.00
2022-12-17T04:11:16.833Z,0.00
2022-12-17T04:12:16.754Z,0.00
2022-12-17T04:13:16.764Z,0.00
2022-12-17T04:14:16.736Z,0.00
2022-12-17T04:15:16.741Z,0.00
2022-12-17T04:16:16.781Z,0.00
2022-12-17T04:17:16.743Z,0.00
2022-12-17T04:18:16.691Z,0.00
2022-12-17T04:19:16.696Z,0.00
2022-12-17T04:20:16.683Z,0.00
2022-12-17T04:21:16.663Z,0.00
2022-12-17T04:22:16.643Z,0.00
2022-12-17T04:23:16.693Z,0.00
2022-12-17T04:24:16.682Z,0.00
2022-12-17T04:25:16.615Z,0.00
2022-12-17T04:26:16.609Z,0.00
2022-12-17T04:27:16.573Z,0.00
2022-12-17T04:28:16.580Z,0.00
2022-12-17T04:29:16.597Z,0.00
2022-12-17T04:30:16.555Z,0.00
2022-12-17T04:31:16.688Z,0.00
2022-12-17T04:32:16.532Z,0.00
2022-12-17T04:33:16.763Z,0.00
2022-12-17T04:34:16.517Z,0.00
2022-12-17T04:35:16.560Z,0.00
2022-12-17T04:36:16.503Z,0.00
2022-12-17T04:37:16.487Z,0.00
2022-12-17T04:38:16.481Z,0.00
2022-12-17T04:39:16.462Z,0.00
2022-12-17T04:40:16.443Z,0.00
2022-12-17T04:41:16.494Z,0.00
2022-12-17T04:42:16.414Z,0.00
2022-12-17T04:43:16.414Z,0.00
2022-12-17T04:44:16.402Z,0.00
2022-12-17T04:45:16.382Z,0.00
2022-12-17T04:46:16.507Z,0.00
2022-12-17T04:47:16.379Z,0.00
2022-12-17T04:48:16.364Z,0.00
2022-12-17T04:49:16.353Z,0.00
2022-12-17T04:50:16.337Z,0.00
2022-12-17T04:51:16.346Z,0.00
2022-12-17T04:52:16.345Z,0.00
2022-12-17T04:53:16.332Z,0.00
2022-12-17T04:54:16.303Z,0.00
2022-12-17T04:55:16.313Z,0.00
2022-12-17T04:56:16.265Z,0.00
2022-12-17T04:57:16.255Z,0.00
2022-12-17T04:58:16.324Z,0.00
2022-12-17T04:59:16.244Z,0.00
2022-12-17T05:00:16.213Z,0.00
2022-12-17T05:01:16.262Z,0.00
2022-12-17T05:02:16.311Z,0.00
2022-12-17T05:03:16.214Z,0.00
2022-12-17T05:04:16.222Z,0.00
2022-12-17T05:05:16.172Z,0.00
2022-12-17T05:06:16.167Z,0.00
2022-12-17T05:07:16.158Z,0.00
2022-12-17T05:08:16.176Z,0.00
2022-12-17T05:09:16.171Z,0.00
2022-12-17T05:10:16.142Z,0.00
2022-12-17T05:11:16.102Z,0.00
2022-12-17T05:12:16.092Z,0.00
2022-12-17T05:13:16.088Z,0.00
2022-12-17T05:14:16.063Z,0.00
2022-12-17T05:15:16.103Z,0.00
2022-12-17T05:16:16.141Z,0.00
2022-12-17T05:17:16.063Z,0.00
2022-12-17T05:18:16.053Z,0.00
2022-12-17T05:19:16.046Z,0.00
2022-12-17T05:20:16.026Z,0.00
2022-12-17T05:21:16.013Z,0.00
2022-12-17T05:22:15.993Z,0.00
2022-12-17T05:23:16.013Z,0.00
2022-12-17T05:24:15.979Z,0.00
2022-12-17T05:25:15.992Z,0.00
2022-12-17T05:26:15.988Z,0.00
2022-12-17T05:27:15.961Z,0.00
2022-12-17T05:28:15.993Z,0.00
2022-12-17T05:29:16.246Z,0.00
2022-12-17T05:30:15.923Z,0.00
2022-12-17T05:31:15.957Z,0.00
2022-12-17T05:32:15.919Z,0.00
2022-12-17T05:33:15.868Z,0.00
2022-12-17T05:34:15.878Z,0.00
2022-12-17T05:35:15.833Z,0.00
2022-12-17T05:36:15.824Z,0.00
2022-12-17T05:37:15.804Z,0.00
2022-12-17T05:38:15.836Z,0.00
2022-12-17T05:39:15.791Z,0.00
2022-12-17T05:40:15.794Z,0.00
2022-12-17T05:41:15.795Z,0.00
2022-12-17T05:42:15.799Z,0.00
2022-12-17T05:43:15.889Z,0.00
2022-12-17T05:44:15.784Z,0.00
2022-12-17T05:45:15.843Z,0.00
2022-12-17T05:46:15.768Z,0.00
2022-12-17T05:47:15.725Z,0.00
2022-12-17T05:48:15.805Z,0.00
2022-12-17T05:49:15.683Z,0.00
2022-12-17T05:50:15.683Z,0.00
2022-12-17T05:51:15.673Z,0.00
2022-12-17T05:52:15.736Z,0.00
2022-12-17T05:53:15.654Z,0.00
2022-12-17T05:54:15.654Z,0.00
2022-12-17T05:55:15.632Z,0.00
2022-12-17T05:56:15.595Z,0.00
2022-12-17T05:57:15.610Z,0.00
2022-12-17T05:58:15.595Z,0.00
2022-12-17T05:59:15.566Z,0.00
2022-12-17T06:00:15.638Z,0.00
2022-12-17T06:01:15.646Z,0.00
2022-12-17T06:02:15.583Z,0.00
2022-12-17T06:03:15.667Z,0.00
2022-12-17T06:04:15.626Z,0.00
2022-12-17T06:05:15.515Z,0.00
2022-12-17T06:06:15.540Z,0.00
2022-12-17T06:07:15.483Z,0.00
2022-12-17T06:08:15.474Z,0.00
2022-12-17T06:09:15.478Z,0.00
2022-12-17T06:10:15.459Z,0.00
2022-12-17T06:11:15.477Z,0.00
2022-12-17T06:12:15.516Z,0.00
2022-12-17T06:13:15.425Z,0.00
2022-12-17T06:14:15.424Z,0.00
2022-12-17T06:15:15.491Z,0.00
2022-12-17T06:16:15.450Z,0.00
2022-12-17T06:17:15.415Z,0.00
2022-12-17T06:18:16.899Z,0.00
2022-12-17T06:19:15.364Z,0.00
2022-12-17T06:20:15.348Z,0.00
2022-12-17T06:21:15.334Z,0.00
2022-12-17T06:22:15.413Z,0.00
2022-12-17T06:23:15.346Z,0.00
2022-12-17T06:24:15.325Z,0.00
2022-12-17T06:25:15.595Z,0.00
2022-12-17T06:26:15.275Z,0.00
2022-12-17T06:27:15.315Z,0.00
2022-12-17T06:28:15.257Z,0.00
2022-12-17T06:29:15.315Z,0.00
2022-12-17T06:30:18.639Z,0.00
2022-12-17T06:31:15.272Z,0.00
2022-12-17T06:32:15.218Z,0.00
2022-12-17T06:33:15.197Z,0.00
2022-12-17T06:34:15.202Z,0.00
2022-12-17T06:35:15.205Z,0.00
2022-12-17T06:36:21.709Z,0.00
2022-12-17T06:37:16.214Z,0.00
2022-12-17T06:38:15.212Z,0.00
2022-12-17T06:39:15.144Z,0.00
2022-12-17T06:40:15.138Z,0.00
2022-12-17T06:41:15.166Z,0.00
2022-12-17T06:42:15.146Z,0.00
2022-12-17T06:43:15.131Z,0.00
2022-12-17T06:44:15.085Z,0.00
2022-12-17T06:45:15.067Z,0.00
2022-12-17T06:46:15.123Z,0.00
2022-12-17T06:47:15.095Z,0.00
2022-12-17T06:48:15.051Z,4.00
2022-12-17T06:49:15.048Z,4.00
2022-12-17T06:50:15.034Z,0.00
2022-12-17T06:51:15.046Z,4.00
2022-12-17T06:52:15.135Z,4.00
2022-12-17T06:53:15.007Z,4.00
2022-12-17T06:54:15.006Z,4.00
2022-12-17T06:55:14.967Z,4.00
2022-12-17T06:56:14.954Z,4.00
2022-12-17T06:57:14.976Z,8.00
2022-12-17T06:58:14.990Z,8.00
2022-12-17T06:59:14.924Z,8.00
2022-12-17T07:00:14.914Z,8.00
2022-12-17T07:01:15.195Z,8.00
2022-12-17T07:02:15.144Z,12.00
2022-12-17T07:03:15.132Z,16.00
2022-12-17T07:04:14.909Z,16.00
2022-12-17T07:05:14.866Z,20.00
2022-12-17T07:06:14.888Z,24.00
2022-12-17T07:07:14.864Z,28.00
2022-12-17T07:08:14.877Z,28.00
2022-12-17T07:09:14.997Z,32.00
2022-12-17T07:10:14.841Z,36.00
2022-12-17T07:11:14.824Z,36.00
2022-12-17T07:12:14.864Z,44.00
2022-12-17T07:13:14.792Z,48.00
2022-12-17T07:14:14.865Z,48.00
2022-12-17T07:15:14.783Z,52.00
2022-12-17T07:16:14.792Z,60.00
2022-12-17T07:17:14.729Z,64.00
2022-12-17T07:18:15.114Z,72.00
2022-12-17T07:19:14.699Z,80.00
2022-12-17T07:20:14.723Z,80.00
2022-12-17T07:21:14.696Z,88.00
2022-12-17T07:22:14.713Z,96.00
2022-12-17T07:23:14.659Z,100.00
2022-12-17T07:24:14.656Z,108.00
2022-12-17T07:25:14.648Z,116.00
2022-12-17T07:26:14.671Z,120.00
2022-12-17T07:27:14.615Z,128.00
2022-12-17T07:28:14.616Z,140.00
2022-12-17T07:29:14.596Z,148.00
2022-12-17T07:30:15.544Z,156.00
2022-12-17T07:31:14.608Z,168.00
2022-12-17T07:32:14.596Z,176.00
2022-12-17T07:33:14.549Z,184.00
2022-12-17T07:34:14.556Z,192.00
2022-12-17T07:35:14.538Z,204.00
2022-12-17T07:36:14.518Z,212.00
2022-12-17T07:37:20.212Z,224.00
2022-12-17T07:38:15.737Z,240.00
2022-12-17T07:39:14.503Z,248.00
2022-12-17T07:40:14.492Z,260.00
2022-12-17T07:41:14.477Z,272.00
2022-12-17T07:42:14.459Z,284.00
2022-12-17T07:43:14.507Z,292.00
2022-12-17T07:44:14.436Z,304.00
2022-12-17T07:45:14.419Z,320.00
2022-12-17T07:46:14.446Z,336.00
2022-12-17T07:47:14.528Z,348.00
2022-12-17T07:48:14.603Z,356.00
2022-12-17T07:49:14.535Z,372.00
2022-12-17T07:50:14.466Z,376.00
2022-12-17T07:51:14.365Z,396.00
2022-12-17T07:52:14.343Z,416.00
2022-12-17T07:53:14.325Z,424.00
2022-12-17T07:54:14.338Z,432.00
2022-12-17T07:55:18.240Z,444.00
2022-12-17T07:56:14.367Z,464.00
2022-12-17T07:57:14.296Z,480.00
2022-12-17T07:58:14.293Z,488.00
2022-12-17T07:59:14.470Z,508.00
2022-12-17T08:00:14.337Z,512.00
2022-12-17T08:01:14.352Z,520.00
2022-12-17T08:02:14.368Z,552.00
2022-12-17T08:03:14.405Z,568.00
2022-12-17T08:04:14.446Z,580.00
2022-12-17T08:05:15.196Z,600.00
2022-12-17T08:06:14.373Z,608.00
2022-12-17T08:07:14.515Z,628.00
2022-12-17T08:08:15.184Z,640.00
2022-12-17T08:09:14.186Z,664.00
2022-12-17T08:10:14.346Z,668.00
2022-12-17T08:11:14.189Z,664.00
2022-12-17T08:12:14.461Z,676.00
2022-12-17T08:13:14.492Z,692.00
2022-12-17T08:14:14.230Z,696.00
2022-12-17T08:15:14.100Z,696.00
2022-12-17T08:16:15.140Z,740.00
2022-12-17T08:17:14.267Z,732.00
2022-12-17T08:18:14.359Z,756.00
2022-12-17T08:19:14.146Z,780.00
2022-12-17T08:20:14.085Z,820.00
2022-12-17T08:21:14.108Z,836.00
2022-12-17T08:22:14.069Z,832.00
2022-12-17T08:23:14.063Z,868.00
2022-12-17T08:24:14.113Z,860.00
2022-12-17T08:25:14.005Z,852.00
2022-12-17T08:26:13.997Z,884.00
2022-12-17T08:27:14.495Z,888.00
2022-12-17T08:28:41.304Z,888.00
2022-12-17T08:29:14.985Z,920.00
2022-12-17T08:30:14.017Z,948.00
2022-12-17T08:31:14.212Z,972.00
2022-12-17T08:32:13.937Z,988.00
2022-12-17T08:33:13.929Z,980.00
2022-12-17T08:34:13.889Z,1008.00
2022-12-17T08:35:13.909Z,1000.00
2022-12-17T08:36:14.167Z,1008.00
2022-12-17T08:37:13.868Z,1044.00
2022-12-17T08:38:14.569Z,1044.00
2022-12-17T08:39:13.919Z,1036.00
2022-12-17T08:40:13.909Z,1056.00
2022-12-17T08:41:13.817Z,1072.00
2022-12-17T08:42:13.807Z,1064.00
2022-12-17T08:43:14.869Z,1068.00
2022-12-17T08:44:13.779Z,1068.00
2022-12-17T08:45:13.768Z,1072.00
2022-12-17T08:46:13.840Z,1088.00
2022-12-17T08:47:13.763Z,1100.00
2022-12-17T08:48:13.747Z,1096.00
2022-12-17T08:49:13.728Z,1132.00
2022-12-17T08:50:13.754Z,1148.00
2022-12-17T08:51:13.747Z,1124.00
2022-12-17T08:52:13.773Z,1152.00
2022-12-17T08:53:13.742Z,1184.00
2022-12-17T08:54:13.781Z,1184.00
2022-12-17T08:55:13.668Z,1184.00
2022-12-17T08:56:13.704Z,1188.00
2022-12-17T08:57:26.813Z,1236.00
2022-12-17T08:58:14.670Z,1264.00
2022-12-17T08:59:13.628Z,1280.00
2022-12-17T09:00:13.608Z,1296.00
2022-12-17T09:01:13.681Z,1316.00
2022-12-17T09:02:13.813Z,1328.00
2022-12-17T09:03:13.696Z,1328.00
2022-12-17T09:04:13.575Z,1320.00
2022-12-17T09:05:13.579Z,1344.00
2022-12-17T09:06:13.549Z,1380.00
2022-12-17T09:07:13.548Z,1396.00
2022-12-17T09:08:13.528Z,1388.00
2022-12-17T09:09:13.569Z,1396.00
2022-12-17T09:10:13.508Z,1428.00
2022-12-17T09:11:13.509Z,1468.00
2022-12-17T09:12:13.492Z,1496.00
2022-12-17T09:13:13.552Z,1516.00
2022-12-17T09:14:13.518Z,1516.00
2022-12-17T09:15:13.459Z,1540.00
2022-12-17T09:16:13.608Z,1568.00
2022-12-17T09:17:13.442Z,1580.00
2022-12-17T09:18:13.442Z,1584.00
2022-12-17T09:19:13.428Z,1600.00
2022-12-17T09:20:13.440Z,1612.00
2022-12-17T09:21:13.388Z,1632.00
2022-12-17T09:22:13.389Z,1644.00
2022-12-17T09:23:13.369Z,1648.00
2022-12-17T09:24:13.438Z,1664.00
2022-12-17T09:25:13.402Z,1688.00
2022-12-17T09:26:13.369Z,1700.00
2022-12-17T09:27:13.394Z,1708.00
2022-12-17T09:28:13.328Z,1712.00
2022-12-17T09:29:13.311Z,1720.00
2022-12-17T09:30:13.299Z,1752.00
2022-12-17T09:31:13.351Z,1784.00
2022-12-17T09:32:13.322Z,1804.00
2022-12-17T09:33:13.326Z,1812.00
2022-12-17T09:34:13.320Z,1804.00
2022-12-17T09:35:13.251Z,1800.00
2022-12-17T09:36:13.241Z,1812.00
2022-12-17T09:37:13.286Z,1808.00
2022-12-17T09:38:13.216Z,1808.00
2022-12-17T09:39:13.200Z,1816.00
2022-12-17T09:40:13.209Z,1836.00
2022-12-17T09:41:13.181Z,1864.00
2022-12-17T09:42:13.225Z,1876.00
2022-12-17T09:43:13.210Z,1864.00
2022-12-17T09:44:13.161Z,1876.00
2022-12-17T09:45:13.263Z,1912.00
2022-12-17T09:46:13.277Z,1940.00
2022-12-17T09:47:13.150Z,1968.00
2022-12-17T09:48:13.117Z,1960.00
2022-12-17T09:49:13.163Z,1952.00
2022-12-17T09:50:13.120Z,1964.00
2022-12-17T09:51:13.129Z,1960.00
2022-12-17T09:52:13.126Z,1960.00
2022-12-17T09:53:13.108Z,1984.00
2022-12-17T09:54:13.062Z,1996.00
2022-12-17T09:55:14.059Z,1992.00
2022-12-17T09:56:13.059Z,2008.00
2022-12-17T09:57:13.139Z,2040.00
2022-12-17T09:58:13.049Z,2080.00
2022-12-17T09:59:13.011Z,2136.00
2022-12-17T10:00:13.020Z,2160.00
2022-12-17T10:01:13.127Z,2140.00
2022-12-17T10:02:13.085Z,2120.00
2022-12-17T10:03:13.009Z,2136.00
2022-12-17T10:04:12.920Z,2176.00
2022-12-17T10:05:13.060Z,2224.00
2022-12-17T10:06:15.655Z,2236.00
2022-12-17T10:07:14.009Z,2204.00
2022-12-17T10:08:12.880Z,2184.00
2022-12-17T10:09:13.060Z,2208.00
2022-12-17T10:10:12.902Z,2260.00
2022-12-17T10:11:12.950Z,2316.00
2022-12-17T10:12:12.851Z,2320.00
2022-12-17T10:13:12.822Z,2316.00
2022-12-17T10:14:12.820Z,2332.00
2022-12-17T10:15:12.846Z,2344.00
2022-12-17T10:16:12.944Z,2336.00
2022-12-17T10:17:12.790Z,2372.00
2022-12-17T10:18:12.783Z,2408.00
2022-12-17T10:19:12.770Z,2440.00
2022-12-17T10:20:12.859Z,2460.00
2022-12-17T10:21:12.751Z,2436.00
2022-12-17T10:22:12.750Z,2400.00
2022-12-17T10:23:12.711Z,2420.00
2022-12-17T10:24:18.319Z,2440.00
2022-12-17T10:25:13.739Z,2452.00
2022-12-17T10:26:12.697Z,2504.00
2022-12-17T10:27:12.672Z,2540.00
2022-12-17T10:28:12.675Z,2552.00
2022-12-17T10:29:12.640Z,2572.00
2022-12-17T10:30:12.631Z,2580.00
2022-12-17T10:31:12.665Z,2540.00
2022-12-17T10:32:12.623Z,2524.00
2022-12-17T10:33:13.879Z,2512.00
2022-12-17T10:34:12.732Z,2488.00
2022-12-17T10:35:12.579Z,2488.00
2022-12-17T10:36:12.591Z,2504.00
2022-12-17T10:37:12.554Z,2508.00
2022-12-17T10:38:12.552Z,2536.00
2022-12-17T10:39:12.563Z,2544.00
2022-12-17T10:40:12.554Z,2548.00
2022-12-17T10:41:12.511Z,2508.00
2022-12-17T10:42:12.528Z,2452.00
2022-12-17T10:43:12.532Z,2420.00
2022-12-17T10:44:12.728Z,2404.00
2022-12-17T10:45:12.466Z,2396.00
2022-12-17T10:46:12.513Z,2444.00
2022-12-17T10:47:12.472Z,2496.00
2022-12-17T10:48:12.499Z,2448.00
2022-12-17T10:49:12.524Z,2456.00
2022-12-17T10:50:12.443Z,2528.00
2022-12-17T10:51:12.411Z,2628.00
2022-12-17T10:52:12.600Z,2692.00
2022-12-17T10:53:12.596Z,2708.00
2022-12-17T10:54:12.377Z,2652.00
2022-12-17T10:55:12.352Z,2600.00
2022-12-17T10:56:12.392Z,2572.00
2022-12-17T10:57:12.353Z,2592.00
2022-12-17T10:58:12.513Z,2620.00
2022-12-17T10:59:12.323Z,2604.00
2022-12-17T11:00:12.325Z,2604.00
2022-12-17T11:01:12.741Z,2620.00
2022-12-17T11:02:12.429Z,2648.00
2022-12-17T11:03:12.446Z,2664.00
2022-12-17T11:04:12.262Z,2656.00
2022-12-17T11:05:12.556Z,2720.00
2022-12-17T11:06:12.296Z,2788.00
2022-12-17T11:07:12.261Z,2848.00
2022-12-17T11:08:13.064Z,2868.00
2022-12-17T11:09:12.274Z,2848.00
2022-12-17T11:10:13.143Z,2856.00
2022-12-17T11:11:12.184Z,2808.00
2022-12-17T11:12:12.207Z,2780.00
2022-12-17T11:13:12.292Z,2784.00
2022-12-17T11:14:12.165Z,2748.00
2022-12-17T11:15:12.172Z,2696.00
2022-12-17T11:16:12.185Z,2700.00
2022-12-17T11:17:12.103Z,2740.00
2022-12-17T11:18:12.219Z,2772.00
2022-12-17T11:19:12.125Z,2820.00
2022-12-17T11:20:12.245Z,2832.00
2022-12-17T11:21:12.074Z,2820.00
2022-12-17T11:22:12.052Z,2800.00
2022-12-17T11:23:12.058Z,2792.00
2022-12-17T11:24:12.082Z,2732.00
2022-12-17T11:25:12.027Z,2660.00
2022-12-17T11:26:12.026Z,2572.00
2022-12-17T11:27:12.007Z,2528.00
2022-12-17T11:28:12.000Z,2508.00
2022-12-17T11:29:12.071Z,2568.00
2022-12-17T11:30:12.005Z,2636.00
2022-12-17T11:31:12.115Z,2684.00
2022-12-17T11:32:11.943Z,2708.00
2022-12-17T11:33:11.963Z,2696.00
2022-12-17T11:34:11.948Z,2656.00
2022-12-17T11:35:11.944Z,2588.00
2022-12-17T11:36:11.925Z,2548.00
2022-12-17T11:37:11.923Z,2564.00
2022-12-17T11:38:11.864Z,2556.00
2022-12-17T11:39:11.874Z,2524.00
2022-12-17T11:40:11.853Z,2520.00
2022-12-17T11:41:11.883Z,2508.00
2022-12-17T11:42:11.865Z,2568.00
2022-12-17T11:43:11.822Z,2644.00
2022-12-17T11:44:11.806Z,2568.00
2022-12-17T11:45:11.796Z,2580.00
2022-12-17T11:46:11.825Z,2544.00
2022-12-17T11:47:11.832Z,2556.00
2022-12-17T11:48:12.023Z,2580.00
2022-12-17T11:49:11.803Z,2608.00
2022-12-17T11:50:11.934Z,2664.00
2022-12-17T11:51:11.733Z,2612.00
2022-12-17T11:52:11.714Z,2620.00
2022-12-17T11:53:11.774Z,2632.00
2022-12-17T11:54:11.690Z,2628.00
2022-12-17T11:55:11.682Z,2652.00
2022-12-17T11:56:11.685Z,2684.00
2022-12-17T11:57:11.675Z,2728.00
2022-12-17T11:58:13.433Z,2732.00
2022-12-17T11:59:11.649Z,2728.00
2022-12-17T12:00:11.624Z,2668.00
2022-12-17T12:01:11.615Z,2612.00
2022-12-17T12:02:11.600Z,2556.00
2022-12-17T12:03:11.681Z,2528.00
2022-12-17T12:04:11.673Z,2528.00
2022-12-17T12:05:11.564Z,2504.00
2022-12-17T12:06:11.583Z,2512.00
2022-12-17T12:07:11.554Z,2520.00
2022-12-17T12:08:11.542Z,2560.00
2022-12-17T12:09:11.529Z,2528.00
2022-12-17T12:10:11.589Z,2576.00
2022-12-17T12:11:11.543Z,2536.00
2022-12-17T12:12:11.533Z,2584.00
2022-12-17T12:13:11.495Z,2600.00
2022-12-17T12:14:11.477Z,2656.00
2022-12-17T12:15:11.484Z,2648.00
2022-12-17T12:16:11.631Z,2632.00
2022-12-17T12:17:11.438Z,2584.00
2022-12-17T12:18:11.455Z,2596.00
2022-12-17T12:19:11.413Z,2604.00
2022-12-17T12:20:11.609Z,2648.00
2022-12-17T12:21:11.502Z,2684.00
2022-12-17T12:22:11.365Z,2644.00
2022-12-17T12:23:11.374Z,2576.00
2022-12-17T12:24:11.366Z,2520.00
2022-12-17T12:25:11.360Z,2472.00
2022-12-17T12:26:11.337Z,2480.00
2022-12-17T12:27:11.357Z,2500.00
2022-12-17T12:28:11.353Z,2532.00
2022-12-17T12:29:11.304Z,2544.00
2022-12-17T12:30:11.364Z,2500.00
2022-12-17T12:31:11.370Z,2492.00
2022-12-17T12:32:11.267Z,2468.00
2022-12-17T12:33:11.282Z,2428.00
2022-12-17T12:34:11.244Z,2412.00
2022-12-17T12:35:11.265Z,2352.00
2022-12-17T12:36:12.267Z,2300.00
2022-12-17T12:37:11.243Z,2232.00
2022-12-17T12:38:11.194Z,2192.00
2022-12-17T12:39:11.205Z,2200.00
2022-12-17T12:40:11.166Z,2244.00
2022-12-17T12:41:11.201Z,2264.00
2022-12-17T12:42:11.173Z,2244.00
2022-12-17T12:43:11.145Z,2240.00
2022-12-17T12:44:11.239Z,2228.00
2022-12-17T12:45:11.288Z,2176.00
2022-12-17T12:46:11.161Z,2120.00
2022-12-17T12:47:11.126Z,2108.00